Oakland, Arkansas
Current Conditions -  °F | °C
As of 9:53 AM on Friday 31 Oct 2014 (Local Time) from KBPK Reporting Station
Overcast Overcast  
Wind Chill: 50°   Ceiling: 2600
Heat Index: 50°   Visibility: 8mi
Dew Point: 39°   Wind: 13mph
Humidity: 66%   Direction: 340°NNW
Pressure: 30.26"   Gusts: 22mph
Location:  36.46°N, 92.57°W
Report Text: KBPK 311453Z AUTO 34011G19KT 300V360 8SM OVC026 10/04 A3026 RMK AO2 SLP245 T01000039 51030
Loading
Personal Weather Stations






























Interactive Weather Map
Tropical Storm Tracking
New forecast layout! Learn more

10-Day Weather Forecast

Advertisements
Track Severe Weather on mobile